sensor_id;sensor_type;location;lat;lon;timestamp;pressure;altitude;pressure_sealevel;temperature;humidity
54306;BME280;66145;45.188;5.712;2023-01-27T00:00:22;99102.22;;;11.38;48.56
54306;BME280;66145;45.188;5.712;2023-01-27T00:02:48;99140.19;;;11.69;48.71
54306;BME280;66145;45.188;5.712;2023-01-27T00:05:15;99148.31;;;11.69;49.46
54306;BME280;66145;45.188;5.712;2023-01-27T00:07:41;99133.44;;;11.66;48.69
54306;BME280;66145;45.188;5.712;2023-01-27T00:10:13;99149.41;;;11.73;48.92
54306;BME280;66145;45.188;5.712;2023-01-27T00:12:40;99073.50;;;11.21;48.38
54306;BME280;66145;45.188;5.712;2023-01-27T00:15:24;99116.88;;;11.52;49.02
54306;BME280;66145;45.188;5.712;2023-01-27T00:17:50;99135.31;;;11.66;48.83
54306;BME280;66145;45.188;5.712;2023-01-27T00:20:15;99152.94;;;11.74;48.67
54306;BME280;66145;45.188;5.712;2023-01-27T00:22:59;99154.56;;;11.75;49.03
54306;BME280;66145;45.188;5.712;2023-01-27T00:25:43;99065.66;;;11.20;48.96
54306;BME280;66145;45.188;5.712;2023-01-27T00:28:17;99078.91;;;11.21;48.75
54306;BME280;66145;45.188;5.712;2023-01-27T00:30:48;99126.38;;;11.55;48.76
54306;BME280;66145;45.188;5.712;2023-01-27T00:33:14;99144.53;;;11.75;49.08
54306;BME280;66145;45.188;5.712;2023-01-27T00:36:01;99148.59;;;11.72;48.82
54306;BME280;66145;45.188;5.712;2023-01-27T00:38:28;99076.75;;;11.23;48.38
54306;BME280;66145;45.188;5.712;2023-01-27T00:40:54;99123.66;;;11.50;49.05
54306;BME280;66145;45.188;5.712;2023-01-27T00:43:39;99123.91;;;11.53;48.32
54306;BME280;66145;45.188;5.712;2023-01-27T00:46:04;99124.19;;;11.52;48.76
54306;BME280;66145;45.188;5.712;2023-01-27T00:48:30;99117.94;;;11.51;48.97
54306;BME280;66145;45.188;5.712;2023-01-27T00:50:55;99153.47;;;11.65;48.33
54306;BME280;66145;45.188;5.712;2023-01-27T00:53:21;99127.97;;;11.56;48.20
54306;BME280;66145;45.188;5.712;2023-01-27T00:55:46;99145.88;;;11.67;48.81
54306;BME280;66145;45.188;5.712;2023-01-27T00:58:12;99119.03;;;11.50;49.01
54306;BME280;66145;45.188;5.712;2023-01-27T01:00:38;99149.66;;;11.71;49.18
54306;BME280;66145;45.188;5.712;2023-01-27T01:03:03;99119.31;;;11.54;48.75
54306;BME280;66145;45.188;5.712;2023-01-27T01:05:29;99145.59;;;11.69;48.53
54306;BME280;66145;45.188;5.712;2023-01-27T01:07:54;99062.38;;;11.18;48.52
54306;BME280;66145;45.188;5.712;2023-01-27T01:10:19;99147.53;;;11.68;48.89
54306;BME280;66145;45.188;5.712;2023-01-27T01:12:45;99137.47;;;11.69;49.04
54306;BME280;66145;45.188;5.712;2023-01-27T01:15:10;99133.69;;;11.70;49.33
54306;BME280;66145;45.188;5.712;2023-01-27T01:17:35;99109.56;;;11.53;48.66
54306;BME280;66145;45.188;5.712;2023-01-27T01:20:01;99135.31;;;11.71;49.06
54306;BME280;66145;45.188;5.712;2023-01-27T01:22:26;99144.25;;;11.71;49.13
54306;BME280;66145;45.188;5.712;2023-01-27T01:24:51;99132.59;;;11.66;48.66
54306;BME280;66145;45.188;5.712;2023-01-27T01:27:17;99124.75;;;11.64;48.82
54306;BME280;66145;45.188;5.712;2023-01-27T01:29:42;99142.38;;;11.72;48.37
54306;BME280;66145;45.188;5.712;2023-01-27T01:32:07;99121.47;;;11.57;48.84
54306;BME280;66145;45.188;5.712;2023-01-27T01:34:34;99092.47;;;11.47;48.86
54306;BME280;66145;45.188;5.712;2023-01-27T01:37:00;99100.06;;;11.50;48.48
54306;BME280;66145;45.188;5.712;2023-01-27T01:39:25;99133.69;;;11.70;48.78
54306;BME280;66145;45.188;5.712;2023-01-27T01:41:50;99099.28;;;11.50;48.93
54306;BME280;66145;45.188;5.712;2023-01-27T01:44:21;99129.09;;;11.65;48.42
54306;BME280;66145;45.188;5.712;2023-01-27T01:46:47;99094.66;;;11.50;48.39
54306;BME280;66145;45.188;5.712;2023-01-27T01:49:13;99122.84;;;11.65;48.52
54306;BME280;66145;45.188;5.712;2023-01-27T01:51:46;99095.72;;;11.49;48.60
54306;BME280;66145;45.188;5.712;2023-01-27T01:54:17;99049.94;;;11.17;48.78
54306;BME280;66145;45.188;5.712;2023-01-27T01:56:47;99123.38;;;11.67;48.90
54306;BME280;66145;45.188;5.712;2023-01-27T01:59:19;99098.44;;;11.49;48.83
54306;BME280;66145;45.188;5.712;2023-01-27T02:01:49;99097.91;;;11.52;48.96
54306;BME280;66145;45.188;5.712;2023-01-27T02:04:18;99129.09;;;11.70;48.80
54306;BME280;66145;45.188;5.712;2023-01-27T02:09:38;99089.75;;;11.47;49.37
54306;BME280;66145;45.188;5.712;2023-01-27T02:12:05;99110.38;;;11.59;48.83
54306;BME280;66145;45.188;5.712;2023-01-27T02:14:31;99042.88;;;11.16;49.16
54306;BME280;66145;45.188;5.712;2023-01-27T02:16:57;99113.91;;;11.69;48.53
54306;BME280;66145;45.188;5.712;2023-01-27T02:19:34;99113.38;;;11.67;48.65
54306;BME280;66145;45.188;5.712;2023-01-27T02:22:06;99078.13;;;11.47;48.88
54306;BME280;66145;45.188;5.712;2023-01-27T02:24:38;99100.91;;;11.61;48.53
54306;BME280;66145;45.188;5.712;2023-01-27T02:27:06;99110.38;;;11.69;48.96
54306;BME280;66145;45.188;5.712;2023-01-27T02:29:31;99074.88;;;11.45;48.83
54306;BME280;66145;45.188;5.712;2023-01-27T02:31:57;99098.72;;;11.58;48.79
54306;BME280;66145;45.188;5.712;2023-01-27T02:34:30;99071.38;;;11.44;48.77
54306;BME280;66145;45.188;5.712;2023-01-27T02:37:03;99080.84;;;11.52;48.71
54306;BME280;66145;45.188;5.712;2023-01-27T02:39:36;99062.41;;;11.44;48.52
54306;BME280;66145;45.188;5.712;2023-01-27T02:42:05;99109.03;;;11.66;48.49
54306;BME280;66145;45.188;5.712;2023-01-27T02:44:31;99100.09;;;11.66;48.83
54306;BME280;66145;45.188;5.712;2023-01-27T02:46:57;99088.72;;;11.59;48.69
54306;BME280;66145;45.188;5.712;2023-01-27T02:49:22;99072.19;;;11.50;48.81
54306;BME280;66145;45.188;5.712;2023-01-27T02:51:48;99088.72;;;11.59;48.75
54306;BME280;66145;45.188;5.712;2023-01-27T02:54:13;99081.38;;;11.59;48.83
54306;BME280;66145;45.188;5.712;2023-01-27T02:56:39;99053.75;;;11.47;48.89
54306;BME280;66145;45.188;5.712;2023-01-27T02:59:04;99075.16;;;11.64;49.18
54306;BME280;66145;45.188;5.712;2023-01-27T03:01:29;99046.16;;;11.44;48.75
54306;BME280;66145;45.188;5.712;2023-01-27T03:03:57;99048.34;;;11.47;49.07
54306;BME280;66145;45.188;5.712;2023-01-27T03:06:22;98990.88;;;11.08;48.93
54306;BME280;66145;45.188;5.712;2023-01-27T03:08:47;99082.50;;;11.68;48.71
54306;BME280;66145;45.188;5.712;2023-01-27T03:11:13;99040.19;;;11.41;48.92
54306;BME280;66145;45.188;5.712;2023-01-27T03:13:39;99039.41;;;11.46;48.73
54306;BME280;66145;45.188;5.712;2023-01-27T03:16:05;99051.03;;;11.57;48.54
54306;BME280;66145;45.188;5.712;2023-01-27T03:18:50;99035.59;;;11.47;48.33
54306;BME280;66145;45.188;5.712;2023-01-27T03:21:18;99066.78;;;11.65;48.86
54306;BME280;66145;45.188;5.712;2023-01-27T03:23:44;99068.09;;;11.68;48.23
54306;BME280;66145;45.188;5.712;2023-01-27T03:26:10;99065.41;;;11.68;48.59
54306;BME280;66145;45.188;5.712;2023-01-27T03:28:36;99060.81;;;11.68;49.14
54306;BME280;66145;45.188;5.712;2023-01-27T03:31:04;99055.13;;;11.60;48.75
54306;BME280;66145;45.188;5.712;2023-01-27T03:33:30;98981.16;;;11.13;48.59
54306;BME280;66145;45.188;5.712;2023-01-27T03:35:56;98986.84;;;11.16;48.75
54306;BME280;66145;45.188;5.712;2023-01-27T03:38:40;99053.50;;;11.59;48.78
54306;BME280;66145;45.188;5.712;2023-01-27T03:41:25;99063.25;;;11.60;48.81
54306;BME280;66145;45.188;5.712;2023-01-27T03:44:09;99062.16;;;11.61;48.87
54306;BME280;66145;45.188;5.712;2023-01-27T03:46:54;98983.31;;;11.10;48.75
54306;BME280;66145;45.188;5.712;2023-01-27T03:49:22;99028.28;;;11.43;49.15
54306;BME280;66145;45.188;5.712;2023-01-27T03:51:47;99058.38;;;11.56;49.05
54306;BME280;66145;45.188;5.712;2023-01-27T03:54:12;99050.78;;;11.53;49.35
54306;BME280;66145;45.188;5.712;2023-01-27T03:56:38;99071.09;;;11.66;48.74
54306;BME280;66145;45.188;5.712;2023-01-27T03:59:03;99036.69;;;11.51;48.93
54306;BME280;66145;45.188;5.712;2023-01-27T04:01:28;99057.56;;;11.66;48.81
54306;BME280;66145;45.188;5.712;2023-01-27T04:03:54;99048.06;;;11.64;48.85
54306;BME280;66145;45.188;5.712;2023-01-27T04:06:40;99051.31;;;11.66;48.82
54306;BME280;66145;45.188;5.712;2023-01-27T04:09:28;98995.78;;;11.27;48.67
54306;BME280;66145;45.188;5.712;2023-01-27T04:11:55;99037.50;;;11.52;48.95
54306;BME280;66145;45.188;5.712;2023-01-27T04:16:51;99024.25;;;11.45;48.88
54306;BME280;66145;45.188;5.712;2023-01-27T04:19:17;99042.63;;;11.64;48.95
54306;BME280;66145;45.188;5.712;2023-01-27T04:21:43;99023.16;;;11.46;49.15
54306;BME280;66145;45.188;5.712;2023-01-27T04:24:10;99047.78;;;11.60;48.45
54306;BME280;66145;45.188;5.712;2023-01-27T04:26:47;99036.97;;;11.50;48.92
54306;BME280;66145;45.188;5.712;2023-01-27T04:29:13;99058.63;;;11.65;48.85
54306;BME280;66145;45.188;5.712;2023-01-27T04:31:39;99045.63;;;11.62;48.88
54306;BME280;66145;45.188;5.712;2023-01-27T04:34:05;99062.44;;;11.64;48.89
54306;BME280;66145;45.188;5.712;2023-01-27T04:36:31;98998.78;;;11.31;48.78
54306;BME280;66145;45.188;5.712;2023-01-27T04:38:56;99017.72;;;11.41;49.04
54306;BME280;66145;45.188;5.712;2023-01-27T04:41:22;99040.50;;;11.61;48.27
54306;BME280;66145;45.188;5.712;2023-01-27T04:43:47;99051.31;;;11.66;48.39
54306;BME280;66145;45.188;5.712;2023-01-27T04:46:12;99041.56;;;11.65;49.24
54306;BME280;66145;45.188;5.712;2023-01-27T04:48:38;99037.50;;;11.62;49.28
54306;BME280;66145;45.188;5.712;2023-01-27T04:51:03;99038.31;;;11.57;48.63
54306;BME280;66145;45.188;5.712;2023-01-27T04:53:28;99020.69;;;11.45;48.72
54306;BME280;66145;45.188;5.712;2023-01-27T04:56:00;99048.34;;;11.67;49.05
54306;BME280;66145;45.188;5.712;2023-01-27T04:58:26;99043.75;;;11.57;49.18
54306;BME280;66145;45.188;5.712;2023-01-27T05:00:51;99018.53;;;11.47;49.21
54306;BME280;66145;45.188;5.712;2023-01-27T05:03:17;99044.28;;;11.60;48.73
54306;BME280;66145;45.188;5.712;2023-01-27T05:05:42;99057.56;;;11.66;48.43
54306;BME280;66145;45.188;5.712;2023-01-27T05:08:09;99048.63;;;11.61;48.35
54306;BME280;66145;45.188;5.712;2023-01-27T05:10:35;99052.13;;;11.66;48.92
54306;BME280;66145;45.188;5.712;2023-01-27T05:13:00;99006.34;;;11.39;48.88
54306;BME280;66145;45.188;5.712;2023-01-27T05:15:26;99041.28;;;11.61;48.77
54306;BME280;66145;45.188;5.712;2023-01-27T05:17:52;99029.09;;;11.53;48.40
54306;BME280;66145;45.188;5.712;2023-01-27T05:20:17;98963.00;;;11.03;49.13
54306;BME280;66145;45.188;5.712;2023-01-27T05:22:43;99046.69;;;11.56;48.88
54306;BME280;66145;45.188;5.712;2023-01-27T05:25:08;99025.59;;;11.48;48.61
54306;BME280;66145;45.188;5.712;2023-01-27T05:27:34;99020.69;;;11.45;49.05
54306;BME280;66145;45.188;5.712;2023-01-27T05:29:59;98996.06;;;11.31;48.79
54306;BME280;66145;45.188;5.712;2023-01-27T05:32:25;99054.59;;;11.63;49.25
54306;BME280;66145;45.188;5.712;2023-01-27T05:34:50;99017.72;;;11.41;49.07
54306;BME280;66145;45.188;5.712;2023-01-27T05:37:15;99024.50;;;11.44;48.45
54306;BME280;66145;45.188;5.712;2023-01-27T05:39:41;99051.88;;;11.57;48.95
54306;BME280;66145;45.188;5.712;2023-01-27T05:42:06;99061.59;;;11.64;48.90
54306;BME280;66145;45.188;5.712;2023-01-27T05:44:31;99057.81;;;11.65;48.61
54306;BME280;66145;45.188;5.712;2023-01-27T05:46:57;99038.03;;;11.49;48.74
54306;BME280;66145;45.188;5.712;2023-01-27T05:49:22;99061.34;;;11.65;48.68
54306;BME280;66145;45.188;5.712;2023-01-27T05:51:47;99026.66;;;11.41;49.04
54306;BME280;66145;45.188;5.712;2023-01-27T05:54:13;99027.19;;;11.44;48.85
54306;BME280;66145;45.188;5.712;2023-01-27T05:56:38;99057.84;;;11.60;48.19
54306;BME280;66145;45.188;5.712;2023-01-27T05:59:05;99050.78;;;11.53;48.90
54306;BME280;66145;45.188;5.712;2023-01-27T06:01:32;99057.00;;;11.59;49.11
54306;BME280;66145;45.188;5.712;2023-01-27T06:03:59;99035.88;;;11.46;48.81
54306;BME280;66145;45.188;5.712;2023-01-27T06:06:27;99034.53;;;11.43;48.61
54306;BME280;66145;45.188;5.712;2023-01-27T06:08:53;99062.41;;;11.59;49.01
54306;BME280;66145;45.188;5.712;2023-01-27T06:11:19;98973.03;;;11.02;48.97
54306;BME280;66145;45.188;5.712;2023-01-27T06:13:46;99067.59;;;11.61;48.63
54306;BME280;66145;45.188;5.712;2023-01-27T06:16:14;99032.91;;;11.42;48.59
54306;BME280;66145;45.188;5.712;2023-01-27T06:18:41;99070.84;;;11.63;48.72
54306;BME280;66145;45.188;5.712;2023-01-27T06:21:08;99062.72;;;11.63;49.09
54306;BME280;66145;45.188;5.712;2023-01-27T06:23:34;99041.00;;;11.47;49.22
54306;BME280;66145;45.188;5.712;2023-01-27T06:26:01;99069.47;;;11.65;48.92
54306;BME280;66145;45.188;5.712;2023-01-27T06:28:28;99071.63;;;11.58;48.77
54306;BME280;66145;45.188;5.712;2023-01-27T06:30:53;99063.50;;;11.58;48.78
54306;BME280;66145;45.188;5.712;2023-01-27T06:33:19;99019.59;;;11.25;48.91
54306;BME280;66145;45.188;5.712;2023-01-27T06:35:44;98997.16;;;11.14;48.69
54306;BME280;66145;45.188;5.712;2023-01-27T06:38:11;99033.16;;;11.40;48.93
54306;BME280;66145;45.188;5.712;2023-01-27T06:40:38;98990.09;;;11.13;49.08
54306;BME280;66145;45.188;5.712;2023-01-27T06:43:10;99056.75;;;11.55;49.28
54306;BME280;66145;45.188;5.712;2023-01-27T06:45:36;99017.19;;;11.23;48.77
54306;BME280;66145;45.188;5.712;2023-01-27T06:48:01;99015.81;;;11.26;48.71
54306;BME280;66145;45.188;5.712;2023-01-27T06:50:28;99032.09;;;11.36;48.80
54306;BME280;66145;45.188;5.712;2023-01-27T06:53:01;99069.22;;;11.62;48.72
54306;BME280;66145;45.188;5.712;2023-01-27T06:55:28;99033.97;;;11.36;49.50
54306;BME280;66145;45.188;5.712;2023-01-27T06:57:53;99060.53;;;11.60;48.54
54306;BME280;66145;45.188;5.712;2023-01-27T07:00:19;99033.72;;;11.37;48.65
54306;BME280;66145;45.188;5.712;2023-01-27T07:02:45;99072.72;;;11.62;49.38
54306;BME280;66145;45.188;5.712;2023-01-27T07:05:10;99061.88;;;11.57;48.49
54306;BME280;66145;45.188;5.712;2023-01-27T07:07:35;99076.25;;;11.63;49.07
54306;BME280;66145;45.188;5.712;2023-01-27T07:10:01;99079.22;;;11.61;49.12
54306;BME280;66145;45.188;5.712;2023-01-27T07:12:27;99047.53;;;11.41;49.09
54306;BME280;66145;45.188;5.712;2023-01-27T07:14:52;99083.56;;;11.62;48.52
54306;BME280;66145;45.188;5.712;2023-01-27T07:17:17;99064.31;;;11.48;48.86
54306;BME280;66145;45.188;5.712;2023-01-27T07:19:42;99051.59;;;11.38;49.22
54306;BME280;66145;45.188;5.712;2023-01-27T07:22:08;99056.47;;;11.36;49.37
54306;BME280;66145;45.188;5.712;2023-01-27T07:24:33;99090.88;;;11.56;48.30
54306;BME280;66145;45.188;5.712;2023-01-27T07:26:58;99058.59;;;11.39;49.01
54306;BME280;66145;45.188;5.712;2023-01-27T07:29:24;99060.25;;;11.40;48.95
54306;BME280;66145;45.188;5.712;2023-01-27T07:31:49;99034.25;;;11.19;48.82
54306;BME280;66145;45.188;5.712;2023-01-27T07:34:14;99103.34;;;11.63;48.45
54306;BME280;66145;45.188;5.712;2023-01-27T07:36:40;99101.44;;;11.63;48.79
54306;BME280;66145;45.188;5.712;2023-01-27T07:39:05;99071.06;;;11.40;48.95
54306;BME280;66145;45.188;5.712;2023-01-27T07:41:30;99056.72;;;11.35;48.47
54306;BME280;66145;45.188;5.712;2023-01-27T07:43:56;99074.63;;;11.46;49.14
54306;BME280;66145;45.188;5.712;2023-01-27T07:46:21;99110.09;;;11.60;49.19
54306;BME280;66145;45.188;5.712;2023-01-27T07:48:46;99082.47;;;11.48;48.51
54306;BME280;66145;45.188;5.712;2023-01-27T07:51:13;99074.59;;;11.36;48.56
54306;BME280;66145;45.188;5.712;2023-01-27T07:53:39;99029.88;;;11.07;49.31
54306;BME280;66145;45.188;5.712;2023-01-27T07:56:05;99093.03;;;11.49;48.86
54306;BME280;66145;45.188;5.712;2023-01-27T07:58:37;99113.09;;;11.59;49.15
54306;BME280;66145;45.188;5.712;2023-01-27T08:01:04;99119.88;;;11.61;49.34
54306;BME280;66145;45.188;5.712;2023-01-27T08:03:30;99109.31;;;11.60;48.76
54306;BME280;66145;45.188;5.712;2023-01-27T08:05:55;99080.28;;;11.39;48.49
54306;BME280;66145;45.188;5.712;2023-01-27T08:08:21;99106.31;;;11.51;49.07
54306;BME280;66145;45.188;5.712;2023-01-27T08:10:46;99101.69;;;11.51;48.88
54306;BME280;66145;45.188;5.712;2023-01-27T08:13:14;99122.03;;;11.59;49.19
54306;BME280;66145;45.188;5.712;2023-01-27T08:15:39;99121.50;;;11.62;48.78
54306;BME280;66145;45.188;5.712;2023-01-27T08:18:05;99099.28;;;11.50;48.79
54306;BME280;66145;45.188;5.712;2023-01-27T08:20:30;99110.66;;;11.52;48.95
54306;BME280;66145;45.188;5.712;2023-01-27T08:22:56;99079.22;;;11.35;48.52
54306;BME280;66145;45.188;5.712;2023-01-27T08:25:22;99089.78;;;11.42;49.28
54306;BME280;66145;45.188;5.712;2023-01-27T08:27:49;99103.84;;;11.49;48.65
54306;BME280;66145;45.188;5.712;2023-01-27T08:30:15;99120.94;;;11.60;49.03
54306;BME280;66145;45.188;5.712;2023-01-27T08:32:40;99093.81;;;11.39;49.58
54306;BME280;66145;45.188;5.712;2023-01-27T08:35:06;99034.75;;;11.00;49.38
54306;BME280;66145;45.188;5.712;2023-01-27T08:37:31;99076.22;;;11.26;49.23
54306;BME280;66145;45.188;5.712;2023-01-27T08:39:57;99127.44;;;11.59;48.95
54306;BME280;66145;45.188;5.712;2023-01-27T08:42:22;99132.88;;;11.59;48.46
54306;BME280;66145;45.188;5.712;2023-01-27T08:44:48;99021.72;;;10.92;48.69
54306;BME280;66145;45.188;5.712;2023-01-27T08:47:13;99120.97;;;11.55;48.61
54306;BME280;66145;45.188;5.712;2023-01-27T08:49:39;99091.66;;;11.36;48.88
54306;BME280;66145;45.188;5.712;2023-01-27T08:52:04;99131.22;;;11.58;48.63
54306;BME280;66145;45.188;5.712;2023-01-27T08:54:30;99130.97;;;11.54;48.64
54306;BME280;66145;45.188;5.712;2023-01-27T08:56:55;99121.75;;;11.50;48.88
54306;BME280;66145;45.188;5.712;2023-01-27T08:59:20;99103.03;;;11.44;48.94
54306;BME280;66145;45.188;5.712;2023-01-27T09:01:46;99085.69;;;11.29;48.63
54306;BME280;66145;45.188;5.712;2023-01-27T09:04:11;99129.59;;;11.57;48.66
54306;BME280;66145;45.188;5.712;2023-01-27T09:06:36;99120.41;;;11.53;48.87
54306;BME280;66145;45.188;5.712;2023-01-27T09:09:02;99112.81;;;11.50;49.05
54306;BME280;66145;45.188;5.712;2023-01-27T09:11:39;99102.50;;;11.31;49.12
54306;BME280;66145;45.188;5.712;2023-01-27T09:14:06;99126.91;;;11.52;48.98
54306;BME280;66145;45.188;5.712;2023-01-27T09:16:31;99136.66;;;11.63;49.18
54306;BME280;66145;45.188;5.712;2023-01-27T09:18:57;99144.25;;;11.61;48.64
54306;BME280;66145;45.188;5.712;2023-01-27T09:21:23;99142.63;;;11.60;48.98
54306;BME280;66145;45.188;5.712;2023-01-27T09:23:48;99044.75;;;11.00;48.50
54306;BME280;66145;45.188;5.712;2023-01-27T09:26:14;99107.63;;;11.38;48.54
54306;BME280;66145;45.188;5.712;2023-01-27T09:28:39;99052.63;;;11.06;48.82
54306;BME280;66145;45.188;5.712;2023-01-27T09:31:04;99143.97;;;11.57;48.56
54306;BME280;66145;45.188;5.712;2023-01-27T09:33:30;99125.81;;;11.53;49.35
54306;BME280;66145;45.188;5.712;2023-01-27T09:36:10;99131.78;;;11.55;49.12
54306;BME280;66145;45.188;5.712;2023-01-27T09:38:49;99133.69;;;11.60;48.98
54306;BME280;66145;45.188;5.712;2023-01-27T09:49:37;99118.19;;;11.39;49.31
54306;BME280;66145;45.188;5.712;2023-01-27T10:03:45;99152.09;;;11.57;49.04
54306;BME280;66145;45.188;5.712;2023-01-27T10:19:54;99156.97;;;11.55;48.85
54306;BME280;66145;45.188;5.712;2023-01-27T10:22:37;99160.22;;;11.57;49.13
54306;BME280;66145;45.188;5.712;2023-01-27T10:28:11;99139.63;;;11.41;49.46
54306;BME280;66145;45.188;5.712;2023-01-27T10:30:49;99089.97;;;11.09;48.69
54306;BME280;66145;45.188;5.712;2023-01-27T10:33:19;99078.03;;;11.00;48.73
54306;BME280;66145;45.188;5.712;2023-01-27T10:35:51;99138.78;;;11.35;49.16
54306;BME280;66145;45.188;5.712;2023-01-27T10:49:31;99117.91;;;11.25;48.74
54306;BME280;66145;45.188;5.712;2023-01-27T10:52:12;99084.00;;;11.02;48.82
54306;BME280;66145;45.188;5.712;2023-01-27T10:54:58;99132.84;;;11.38;48.81
54306;BME280;66145;45.188;5.712;2023-01-27T10:57:32;99156.44;;;11.53;48.99
54306;BME280;66145;45.188;5.712;2023-01-27T11:00:07;99160.75;;;11.54;48.97
54306;BME280;66145;45.188;5.712;2023-01-27T11:02:43;99072.06;;;10.93;48.92
54306;BME280;66145;45.188;5.712;2023-01-27T11:05:18;99153.72;;;11.53;49.31
54306;BME280;66145;45.188;5.712;2023-01-27T11:08:26;99159.69;;;11.55;48.80
54306;BME280;66145;45.188;5.712;2023-01-27T11:10:53;99159.41;;;11.52;49.52
54306;BME280;66145;45.188;5.712;2023-01-27T11:13:38;99157.78;;;11.56;49.96
54306;BME280;66145;45.188;5.712;2023-01-27T11:16:05;99086.72;;;11.02;50.12
54306;BME280;66145;45.188;5.712;2023-01-27T11:18:33;99158.34;;;11.53;50.77
54306;BME280;66145;45.188;5.712;2023-01-27T11:21:04;99164.03;;;11.56;50.35
54306;BME280;66145;45.188;5.712;2023-01-27T11:23:43;99160.75;;;11.54;50.29
54306;BME280;66145;45.188;5.712;2023-01-27T11:28:55;99084.28;;;11.06;50.89
54306;BME280;66145;45.188;5.712;2023-01-27T11:36:36;99158.59;;;11.46;49.87
54306;BME280;66145;45.188;5.712;2023-01-27T11:39:02;99135.00;;;11.36;49.58
54306;BME280;66145;45.188;5.712;2023-01-27T11:41:31;99163.75;;;11.58;49.92
54306;BME280;66145;45.188;5.712;2023-01-27T11:44:01;99131.22;;;11.37;49.22
54306;BME280;66145;45.188;5.712;2023-01-27T11:46:29;99117.38;;;11.34;49.72
54306;BME280;66145;45.188;5.712;2023-01-27T11:48:57;99149.38;;;11.52;49.52
54306;BME280;66145;45.188;5.712;2023-01-27T11:51:24;99122.53;;;11.35;49.53
54306;BME280;66145;45.188;5.712;2023-01-27T11:54:22;99152.09;;;11.57;49.77
54306;BME280;66145;45.188;5.712;2023-01-27T11:56:49;99108.97;;;11.30;49.89
54306;BME280;66145;45.188;5.712;2023-01-27T11:59:34;99118.19;;;11.39;49.52
54306;BME280;66145;45.188;5.712;2023-01-27T12:02:19;99142.34;;;11.56;49.69
54306;BME280;66145;45.188;5.712;2023-01-27T12:05:11;99136.66;;;11.58;49.45
54306;BME280;66145;45.188;5.712;2023-01-27T12:07:59;99137.72;;;11.57;48.83
54306;BME280;66145;45.188;5.712;2023-01-27T12:10:37;99136.66;;;11.58;49.22
54306;BME280;66145;45.188;5.712;2023-01-27T12:13:20;99128.53;;;11.58;49.83
54306;BME280;66145;45.188;5.712;2023-01-27T12:15:58;99126.91;;;11.57;49.44
54306;BME280;66145;45.188;5.712;2023-01-27T12:18:25;99096.81;;;11.38;49.23
54306;BME280;66145;45.188;5.712;2023-01-27T12:21:02;99122.31;;;11.57;50.05
54306;BME280;66145;45.188;5.712;2023-01-27T12:23:31;99091.66;;;11.36;49.16
54306;BME280;66145;45.188;5.712;2023-01-27T12:26:09;99114.72;;;11.54;49.42
54306;BME280;66145;45.188;5.712;2023-01-27T12:28:46;99050.72;;;11.17;49.80
54306;BME280;66145;45.188;5.712;2023-01-27T12:33:57;99110.09;;;11.50;49.81
54306;BME280;66145;45.188;5.712;2023-01-27T12:36:23;99079.75;;;11.32;49.69
54306;BME280;66145;45.188;5.712;2023-01-27T12:38:55;99096.28;;;11.46;49.76
54306;BME280;66145;45.188;5.712;2023-01-27T12:41:25;99104.41;;;11.46;49.39
54306;BME280;66145;45.188;5.712;2023-01-27T12:44:06;99085.44;;;11.36;49.13
54306;BME280;66145;45.188;5.712;2023-01-27T12:46:32;99115.78;;;11.53;49.75
54306;BME280;66145;45.188;5.712;2023-01-27T12:49:10;99109.03;;;11.51;49.61
54306;BME280;66145;45.188;5.712;2023-01-27T12:51:42;99101.44;;;11.37;49.33
54306;BME280;66145;45.188;5.712;2023-01-27T12:56:46;99103.06;;;11.38;49.58
54306;BME280;66145;45.188;5.712;2023-01-27T12:59:14;99077.31;;;11.31;49.37
54306;BME280;66145;45.188;5.712;2023-01-27T13:01:41;99112.28;;;11.53;49.47
54306;BME280;66145;45.188;5.712;2023-01-27T13:04:20;99081.63;;;11.32;49.90
54306;BME280;66145;45.188;5.712;2023-01-27T13:06:54;99115.53;;;11.55;49.54
54306;BME280;66145;45.188;5.712;2023-01-27T13:09:33;99079.47;;;11.34;49.47
54306;BME280;66145;45.188;5.712;2023-01-27T13:15:07;99079.22;;;11.35;48.97
54306;BME280;66145;45.188;5.712;2023-01-27T13:17:44;99084.09;;;11.38;49.07
54306;BME280;66145;45.188;5.712;2023-01-27T13:22:55;99084.09;;;11.38;49.21
54306;BME280;66145;45.188;5.712;2023-01-27T13:25:44;99115.78;;;11.53;49.59
54306;BME280;66145;45.188;5.712;2023-01-27T13:28:18;99100.63;;;11.42;49.82
54306;BME280;66145;45.188;5.712;2023-01-27T13:30:49;99096.53;;;11.39;49.78
54306;BME280;66145;45.188;5.712;2023-01-27T13:36:24;99107.38;;;11.39;49.43
54306;BME280;66145;45.188;5.712;2023-01-27T13:41:50;99036.38;;;11.01;49.36
54306;BME280;66145;45.188;5.712;2023-01-27T13:47:17;99125.53;;;11.54;48.97
54306;BME280;66145;45.188;5.712;2023-01-27T13:49:47;99123.66;;;11.55;49.48
54306;BME280;66145;45.188;5.712;2023-01-27T13:52:13;99042.34;;;11.03;49.26
54306;BME280;66145;45.188;5.712;2023-01-27T13:54:39;99043.41;;;11.02;49.52
54306;BME280;66145;45.188;5.712;2023-01-27T13:57:22;99120.66;;;11.51;49.12
54306;BME280;66145;45.188;5.712;2023-01-27T14:00:09;99134.50;;;11.55;49.31
54306;BME280;66145;45.188;5.712;2023-01-27T14:05:42;99103.28;;;11.32;48.99
54306;BME280;66145;45.188;5.712;2023-01-27T14:16:18;99128.50;;;11.43;48.84
54306;BME280;66145;45.188;5.712;2023-01-27T14:19:05;99138.28;;;11.54;48.97
54306;BME280;66145;45.188;5.712;2023-01-27T14:21:38;99147.22;;;11.54;48.96
54306;BME280;66145;45.188;5.712;2023-01-27T14:24:39;99141.25;;;11.52;49.11
54306;BME280;66145;45.188;5.712;2023-01-27T14:27:28;99143.16;;;11.52;49.39
54306;BME280;66145;45.188;5.712;2023-01-27T14:32:50;99148.03;;;11.50;49.86
54306;BME280;66145;45.188;5.712;2023-01-27T14:41:20;99150.22;;;11.53;49.17
54306;BME280;66145;45.188;5.712;2023-01-27T14:44:11;99137.44;;;11.43;49.30
54306;BME280;66145;45.188;5.712;2023-01-27T14:52:01;99157.50;;;11.52;49.09
54306;BME280;66145;45.188;5.712;2023-01-27T14:54:52;99154.53;;;11.54;49.06
54306;BME280;66145;45.188;5.712;2023-01-27T14:57:29;99044.69;;;10.84;49.87